Time;durP1;ratioP1;P1;durP2;ratioP2;P2;SDS_P1;SDS_P2;PMS_P1;PMS_P2;Temp;Humidity;BMP_temperature;BMP_pressure;BME280_temperature;BME280_humidity;BME280_pressure;Samples;Min_cycle;Max_cycle;Signal;HPM_P1;HPM_P2
2022/09/05 00:02:00;;;;;;;8.35;4.15;;;19.70;99.90;;;;;;5112576;27;20417;-76
2022/09/05 00:04:36;;;;;;;6.30;4.25;;;19.60;99.90;;;;;;5114687;27;20402;-76
2022/09/05 00:07:25;;;;;;;6.97;4.18;;;19.50;99.90;;;;;;5085048;28;20412;-77
2022/09/05 00:10:09;;;;;;;5.55;4.30;;;19.60;99.90;;;;;;5109138;27;20422;-76
2022/09/05 00:12:36;;;;;;;6.82;4.47;;;19.40;99.90;;;;;;5111068;27;20449;-76
2022/09/05 00:15:10;;;;;;;6.55;4.45;;;;;;;;;;5081372;27;20427;-76
2022/09/05 00:17:59;;;;;;;6.57;4.23;;;19.20;99.90;;;;;;5087650;28;20456;-76
2022/09/05 00:20:32;;;;;;;6.97;4.35;;;19.40;99.90;;;;;;5095009;27;20415;-76
2022/09/05 00:23:31;;;;;;;5.85;4.40;;;19.40;99.90;;;;;;5087294;27;20442;-76
2022/09/05 00:26:17;;;;;;;5.90;4.45;;;19.40;99.90;;;;;;5116428;27;20403;-76
2022/09/05 00:28:52;;;;;;;8.43;4.45;;;;;;;;;;5104309;28;20424;-76
2022/09/05 00:31:39;;;;;;;7.57;4.83;;;19.20;99.90;;;;;;5096627;27;20400;-76
2022/09/05 00:34:43;;;;;;;6.18;4.38;;;19.30;99.90;;;;;;5094029;27;20457;-76
2022/09/05 00:37:09;;;;;;;7.50;4.20;;;19.20;99.90;;;;;;5081047;27;20422;-76
2022/09/05 00:39:39;;;;;;;5.53;4.15;;;19.10;99.90;;;;;;5099007;27;20492;-75
2022/09/05 00:42:15;;;;;;;9.60;4.43;;;19.20;99.90;;;;;;5116191;27;20972;-76
2022/09/05 00:45:00;;;;;;;8.20;4.63;;;19.10;99.90;;;;;;5090597;27;20425;-75
2022/09/05 00:47:30;;;;;;;5.65;4.55;;;;;;;;;;5097803;27;20497;-76
2022/09/05 00:50:01;;;;;;;9.75;4.70;;;18.90;99.90;;;;;;5101967;28;20810;-76
2022/09/05 00:52:38;;;;;;;7.68;4.32;;;18.80;99.90;;;;;;5078524;28;20404;-76
2022/09/05 00:55:09;;;;;;;7.45;4.53;;;18.90;99.90;;;;;;5097073;27;20454;-76
2022/09/05 00:57:41;;;;;;;8.18;4.60;;;19.00;99.90;;;;;;5115676;27;20403;-76
2022/09/05 01:00:19;;;;;;;8.65;4.53;;;19.00;99.90;;;;;;5089027;27;20788;-76
2022/09/05 01:02:44;;;;;;;5.55;4.20;;;19.10;99.90;;;;;;5115036;27;20395;-76
2022/09/05 01:05:30;;;;;;;6.47;4.30;;;18.90;99.90;;;;;;5084709;28;20528;-75
2022/09/05 01:08:26;;;;;;;6.80;4.70;;;19.00;99.90;;;;;;5093047;27;20395;-76
2022/09/05 01:11:18;;;;;;;7.87;4.60;;;18.90;99.90;;;;;;5112637;27;20482;-75
2022/09/05 01:14:23;;;;;;;6.63;4.63;;;18.80;99.90;;;;;;5103928;28;20472;-79
2022/09/05 01:17:24;;;;;;;8.85;4.90;;;18.60;99.90;;;;;;5103171;27;20452;-76
2022/09/05 01:20:27;;;;;;;7.35;5.00;;;18.60;99.90;;;;;;5075127;28;20389;-76
2022/09/05 01:23:05;;;;;;;7.27;5.23;;;18.70;99.90;;;;;;5091146;27;20470;-76
2022/09/05 01:25:53;;;;;;;7.82;4.90;;;18.90;99.90;;;;;;5078677;28;20451;-75
2022/09/05 01:28:55;;;;;;;8.32;5.50;;;18.80;99.90;;;;;;5069257;28;20771;-75
2022/09/05 01:31:40;;;;;;;8.20;5.57;;;18.60;99.90;;;;;;5076861;28;20422;-75
2022/09/05 01:34:23;;;;;;;9.10;5.15;;;;;;;;;;5066011;27;20739;-75
2022/09/05 01:37:25;;;;;;;8.75;5.32;;;18.40;99.90;;;;;;5097682;27;20422;-75
2022/09/05 01:40:06;;;;;;;6.25;5.45;;;18.30;99.90;;;;;;5081439;28;20959;-74
2022/09/05 01:43:13;;;;;;;7.78;5.65;;;18.70;99.90;;;;;;5098668;28;20420;-75
2022/09/05 01:45:39;;;;;;;7.03;5.97;;;;;;;;;;5054093;27;20774;-74
2022/09/05 01:48:42;;;;;;;8.70;6.07;;;18.40;99.90;;;;;;5091919;27;20498;-74
2022/09/05 01:51:31;;;;;;;7.63;6.10;;;18.10;99.90;;;;;;5057977;28;20823;-74
2022/09/05 01:54:18;;;;;;;8.57;6.05;;;18.30;99.90;;;;;;5083112;28;20442;-75
2022/09/05 01:57:07;;;;;;;7.03;5.82;;;18.30;99.90;;;;;;5101309;27;20440;-74
2022/09/05 01:59:49;;;;;;;8.57;5.72;;;18.30;99.90;;;;;;5097844;28;20764;-74
2022/09/05 02:02:59;;;;;;;11.55;5.50;;;18.10;99.90;;;;;;5090263;27;20411;-75
2022/09/05 02:05:58;;;;;;;7.63;5.70;;;17.90;99.90;;;;;;5095608;27;20419;-75
2022/09/05 02:08:54;;;;;;;7.43;5.57;;;18.00;99.90;;;;;;5073766;28;20412;-75
2022/09/05 02:11:40;;;;;;;6.38;5.28;;;18.20;99.90;;;;;;5078947;27;20480;-76
2022/09/05 02:14:36;;;;;;;8.48;5.80;;;17.90;99.90;;;;;;5087957;28;20461;-76
2022/09/05 02:17:21;;;;;;;9.57;5.70;;;;;;;;;;5093018;27;20421;-76
2022/09/05 02:19:55;;;;;;;8.52;5.65;;;17.80;99.90;;;;;;5113780;27;20395;-76
2022/09/05 02:22:26;;;;;;;8.65;5.60;;;;;;;;;;5095001;27;20414;-76
2022/09/05 02:25:17;;;;;;;9.77;5.93;;;18.00;99.90;;;;;;5090930;27;20418;-75
2022/09/05 02:27:55;;;;;;;8.40;6.00;;;17.80;99.90;;;;;;5084044;28;20423;-75
2022/09/05 02:30:24;;;;;;;7.63;6.15;;;;;;;;;;5110393;28;20421;-75
2022/09/05 02:33:21;;;;;;;12.55;6.45;;;17.80;99.90;;;;;;5094287;27;20499;-75
2022/09/05 02:36:12;;;;;;;8.40;6.70;;;17.70;99.90;;;;;;5088422;28;20916;-75
2022/09/05 02:38:46;;;;;;;7.65;6.60;;;17.50;99.90;;;;;;5110958;28;20406;-74
2022/09/05 02:41:17;;;;;;;8.38;6.82;;;17.50;99.90;;;;;;5105109;28;20410;-75
2022/09/05 02:44:05;;;;;;;9.10;7.10;;;;;;;;;;5087504;28;20417;-75
2022/09/05 02:46:34;;;;;;;9.23;7.15;;;17.60;99.90;;;;;;5096343;28;20419;-74
2022/09/05 02:49:04;;;;;;;11.40;7.53;;;;;;;;;;5111564;28;20828;-75
2022/09/05 02:51:36;;;;;;;8.90;6.78;;;;;;;;;;5097039;28;20402;-75
2022/09/05 02:54:11;;;;;;;10.38;6.93;;;17.40;99.90;;;;;;5111119;28;20422;-75
2022/09/05 02:57:06;;;;;;;9.95;7.35;;;17.40;99.90;;;;;;5070264;28;20422;-75
2022/09/05 02:59:41;;;;;;;11.57;7.53;;;;;;;;;;5056262;28;20436;-75
2022/09/05 03:02:37;;;;;;;8.27;7.18;;;17.40;99.90;;;;;;5109721;28;20502;-75
2022/09/05 03:05:13;;;;;;;8.77;7.28;;;17.20;99.90;;;;;;5111856;28;20509;-75
2022/09/05 03:08:27;;;;;;;10.02;7.35;;;17.10;99.90;;;;;;5109014;28;20511;-75
2022/09/05 03:11:43;;;;;;;10.75;7.13;;;17.00;99.90;;;;;;5079466;28;20422;-75
2022/09/05 03:14:28;;;;;;;8.30;7.10;;;;;;;;;;5110780;28;20443;-76
2022/09/05 03:17:35;;;;;;;8.95;7.18;;;16.90;99.90;;;;;;5087720;28;20423;-75
2022/09/05 03:20:06;;;;;;;11.60;7.33;;;17.00;99.90;;;;;;5111303;28;20432;-75
2022/09/05 03:22:32;;;;;;;9.80;7.38;;;;;;;;;;5096463;28;20418;-75
2022/09/05 03:25:29;;;;;;;9.35;7.07;;;17.10;99.90;;;;;;5089000;27;20913;-74
2022/09/05 03:28:02;;;;;;;8.80;7.50;;;;;;;;;;5076997;28;20417;-74
2022/09/05 03:31:02;;;;;;;9.63;7.55;;;17.10;99.90;;;;;;5081605;27;20416;-74
2022/09/05 03:33:40;;;;;;;9.50;7.40;;;16.90;99.90;;;;;;5065641;27;20889;-74
2022/09/05 03:36:09;;;;;;;9.18;7.55;;;;;;;;;;5100595;27;20426;-75
2022/09/05 03:39:21;;;;;;;8.88;7.85;;;17.00;99.90;;;;;;5063734;28;20417;-74
2022/09/05 03:42:05;;;;;;;10.30;7.80;;;;;;;;;;5060101;28;20502;-75
2022/09/05 03:44:55;;;;;;;12.15;7.72;;;16.90;99.90;;;;;;5091081;27;20418;-75
2022/09/05 03:47:21;;;;;;;10.65;8.20;;;;;;;;;;5095280;28;20415;-74
2022/09/05 03:50:07;;;;;;;9.88;8.07;;;;;;;;;;5112847;27;20421;-74
2022/09/05 03:52:36;;;;;;;9.13;8.13;;;;;;;;;;5107511;27;20425;-74
2022/09/05 03:55:37;;;;;;;10.73;7.53;;;16.80;99.90;;;;;;5087050;27;20493;-75
2022/09/05 03:58:19;;;;;;;10.20;7.97;;;;;;;;;;5097423;27;20414;-75
2022/09/05 04:01:02;;;;;;;10.60;8.53;;;;;;;;;;5114562;27;20427;-74
2022/09/05 04:03:55;;;;;;;10.57;8.55;;;16.70;99.90;;;;;;5113764;27;20453;-75
2022/09/05 04:06:46;;;;;;;9.67;7.90;;;16.50;99.90;;;;;;5096753;27;20487;-75
2022/09/05 04:09:25;;;;;;;9.25;7.97;;;16.70;99.90;;;;;;5112906;27;20410;-74
2022/09/05 04:11:59;;;;;;;12.00;8.50;;;16.90;99.90;;;;;;5065182;27;20421;-75
2022/09/05 04:14:41;;;;;;;10.82;8.02;;;16.60;99.90;;;;;;5113040;27;20414;-75
2022/09/05 04:17:24;;;;;;;11.25;8.20;;;;;;;;;;5077377;27;20421;-75
2022/09/05 04:19:54;;;;;;;10.25;8.45;;;16.80;99.90;;;;;;5114358;27;20394;-75
2022/09/05 04:22:23;;;;;;;10.40;8.60;;;;;;;;;;5096636;27;20403;-75
2022/09/05 04:25:11;;;;;;;9.52;8.30;;;16.40;99.90;;;;;;5099568;27;20427;-74
2022/09/05 04:28:16;;;;;;;10.02;8.70;;;16.70;99.90;;;;;;5115897;27;20398;-74
2022/09/05 04:31:00;;;;;;;11.18;9.27;;;16.60;99.90;;;;;;5075627;27;20466;-74
2022/09/05 04:33:40;;;;;;;12.75;9.07;;;16.60;99.90;;;;;;5113054;27;20432;-74
2022/09/05 04:36:09;;;;;;;10.77;9.75;;;;;;;;;;5098546;27;20568;-76
2022/09/05 04:38:37;;;;;;;11.80;9.32;;;;;;;;;;5080182;28;20418;-76
2022/09/05 04:41:12;;;;;;;13.60;10.23;;;;;;;;;;5082945;28;20446;-75
2022/09/05 04:44:01;;;;;;;11.83;10.27;;;16.20;99.90;;;;;;5096095;27;20425;-75
2022/09/05 04:46:42;;;;;;;11.20;9.77;;;16.40;99.90;;;;;;5100723;28;20427;-74
2022/09/05 04:49:17;;;;;;;10.90;9.70;;;;;;;;;;5104701;27;20878;-74
2022/09/05 04:51:44;;;;;;;11.30;9.55;;;;;;;;;;5101880;27;21061;-74
2022/09/05 04:54:13;;;;;;;12.02;9.73;;;;;;;;;;5086365;28;20458;-74
2022/09/05 04:56:43;;;;;;;10.82;9.50;;;16.40;99.90;;;;;;5091099;27;20501;-74
2022/09/05 04:59:21;;;;;;;11.13;9.93;;;16.20;99.90;;;;;;5098169;28;20515;-74
2022/09/05 05:01:57;;;;;;;11.57;9.27;;;16.20;99.90;;;;;;5085965;28;20412;-74
2022/09/05 05:04:25;;;;;;;13.37;9.67;;;;;;;;;;5090833;27;20531;-75
2022/09/05 05:06:54;;;;;;;11.03;9.67;;;;;;;;;;5102965;27;20473;-75
2022/09/05 05:09:32;;;;;;;12.90;9.52;;;16.40;99.90;;;;;;5115109;27;20735;-75
2022/09/05 05:12:36;;;;;;;13.25;9.43;;;16.10;99.90;;;;;;5115926;27;20430;-76
2022/09/05 05:15:16;;;;;;;12.13;9.90;;;;;;;;;;5082995;27;20425;-81
2022/09/05 05:18:05;;;;;;;13.45;9.43;;;16.20;99.90;;;;;;5084349;28;20948;-81
2022/09/05 05:20:41;;;;;;;12.10;9.97;;;16.40;99.90;;;;;;5092208;28;20427;-81
2022/09/05 05:23:12;;;;;;;12.63;9.48;;;16.00;99.90;;;;;;5080366;27;20421;-80
2022/09/05 05:25:58;;;;;;;14.00;9.93;;;;;;;;;;5082734;28;20426;-80
2022/09/05 05:28:49;;;;;;;11.45;9.98;;;16.00;99.90;;;;;;5063495;28;20404;-81
2022/09/05 05:31:22;;;;;;;13.13;10.00;;;16.20;99.90;;;;;;5103599;27;20427;-81
2022/09/05 05:33:49;;;;;;;12.20;9.43;;;;;;;;;;5084464;27;20428;-81
2022/09/05 05:36:24;;;;;;;13.77;10.13;;;;;;;;;;5104254;28;20424;-82
2022/09/05 05:39:07;;;;;;;12.93;10.00;;;16.20;99.90;;;;;;5095848;27;20471;-82
2022/09/05 05:41:40;;;;;;;10.55;9.38;;;;;;;;;;5094926;28;20404;-76
2022/09/05 05:44:15;;;;;;;11.07;9.00;;;16.30;99.90;;;;;;5081579;27;20838;-77
2022/09/05 05:46:45;;;;;;;11.07;9.80;;;;;;;;;;5072848;28;20431;-76
2022/09/05 05:49:17;;;;;;;11.18;9.80;;;;;;;;;;5099064;27;20468;-76
2022/09/05 05:51:52;;;;;;;14.90;10.00;;;;;;;;;;5100778;27;20435;-76
2022/09/05 05:54:37;;;;;;;11.48;9.32;;;;;;;;;;5101140;27;20422;-77
2022/09/05 05:57:25;;;;;;;11.82;9.10;;;16.70;99.90;;;;;;5083878;28;20416;-76
2022/09/05 06:00:04;;;;;;;12.60;9.40;;;;;;;;;;5083841;28;20483;-76
2022/09/05 06:02:42;;;;;;;12.50;9.23;;;;;;;;;;5082053;27;20418;-76
2022/09/05 06:05:29;;;;;;;13.45;9.38;;;16.70;99.90;;;;;;5114571;27;20486;-76
2022/09/05 06:08:01;;;;;;;14.23;9.43;;;;;;;;;;5108175;28;20424;-76
2022/09/05 06:10:46;;;;;;;13.15;9.00;;;;;;;;;;5106047;27;20902;-76
2022/09/05 06:13:57;;;;;;;9.90;8.88;;;17.30;99.90;;;;;;5101760;27;20422;-76
2022/09/05 06:17:02;;;;;;;11.93;9.15;;;17.30;99.90;;;;;;5084352;28;20427;-78
2022/09/05 06:19:40;;;;;;;11.00;9.70;;;;;;;;;;5091848;28;20454;-76
2022/09/05 06:22:15;;;;;;;11.47;9.40;;;;;;;;;;5110391;27;20423;-75
2022/09/05 06:25:00;;;;;;;12.88;9.30;;;;;;;;;;5094480;28;20516;-75
2022/09/05 06:27:26;;;;;;;10.32;9.07;;;;;;;;;;5113059;27;20421;-75
2022/09/05 06:30:00;;;;;;;12.48;9.30;;;17.80;99.90;;;;;;5082199;28;20423;-75
2022/09/05 06:32:53;;;;;;;13.52;9.23;;;17.60;99.90;;;;;;5075675;28;20418;-75
2022/09/05 06:35:34;;;;;;;10.88;9.10;;;;;;;;;;5089893;28;20829;-81
2022/09/05 06:38:34;;;;;;;10.40;8.70;;;18.00;99.90;;;;;;5094869;28;20409;-81
2022/09/05 06:41:26;;;;;;;10.15;8.98;;;18.50;99.90;;;;;;5074391;28;20412;-81
2022/09/05 06:44:18;;;;;;;10.45;9.13;;;18.20;99.90;;;;;;5096794;28;20913;-81
2022/09/05 06:46:48;;;;;;;14.10;9.20;;;18.20;99.90;;;;;;5095617;28;20487;-81
2022/09/05 06:49:35;;;;;;;12.32;8.90;;;18.60;99.90;;;;;;5131573;28;20487;-81
2022/09/05 06:52:10;;;;;;;11.67;9.30;;;18.50;99.90;;;;;;5100732;28;20444;-80
2022/09/05 06:54:41;;;;;;;12.95;9.10;;;18.60;99.90;;;;;;5096257;28;20442;-81
2022/09/05 06:57:11;;;;;;;12.70;8.85;;;;;;;;;;5075879;28;20422;-81
2022/09/05 06:59:37;;;;;;;13.30;9.00;;;;;;;;;;5091273;27;20424;-82
2022/09/05 07:02:21;;;;;;;10.98;9.20;;;19.00;99.90;;;;;;5110282;28;20420;-80
2022/09/05 07:05:10;;;;;;;10.37;8.23;;;19.20;99.90;;;;;;5095355;28;20779;-80
2022/09/05 07:07:50;;;;;;;10.75;8.98;;;19.40;99.90;;;;;;5082350;28;20415;-81
2022/09/05 07:10:28;;;;;;;10.80;8.93;;;19.30;99.90;;;;;;5086135;27;20429;-80
2022/09/05 07:13:18;;;;;;;10.65;9.00;;;19.70;99.90;;;;;;5097790;27;20471;-80
2022/09/05 07:15:53;;;;;;;10.05;8.43;;;20.00;99.90;;;;;;5095614;28;20432;-81
2022/09/05 07:18:25;;;;;;;13.10;9.05;;;19.90;99.90;;;;;;5110481;27;20426;-80
2022/09/05 07:21:00;;;;;;;11.43;8.60;;;20.30;99.90;;;;;;5072556;28;20565;-81
2022/09/05 07:24:02;;;;;;;12.00;8.35;;;20.50;99.90;;;;;;5097724;28;20396;-80
2022/09/05 07:26:32;;;;;;;9.82;8.23;;;20.00;99.90;;;;;;5077803;28;20406;-81
2022/09/05 07:29:04;;;;;;;10.00;8.70;;;20.20;99.90;;;;;;5090149;27;20422;-80
2022/09/05 07:31:32;;;;;;;12.30;7.95;;;20.50;99.90;;;;;;5099675;28;20420;-80
2022/09/05 07:34:21;;;;;;;9.80;8.80;;;20.60;99.90;;;;;;5097051;27;20471;-81
2022/09/05 07:36:50;;;;;;;10.85;9.38;;;20.60;99.90;;;;;;5117725;27;20419;-81
2022/09/05 07:39:21;;;;;;;9.50;8.40;;;20.80;99.90;;;;;;5113621;27;20418;-81
2022/09/05 07:41:59;;;;;;;10.50;9.00;;;20.90;99.90;;;;;;5116516;27;20416;-79
2022/09/05 07:44:31;;;;;;;9.77;8.38;;;20.90;99.90;;;;;;5084847;27;20410;-80
2022/09/05 07:47:03;;;;;;;10.68;8.60;;;21.00;99.90;;;;;;5084443;27;20399;-80
2022/09/05 07:49:33;;;;;;;9.77;8.20;;;21.10;99.90;;;;;;5116809;27;20496;-80
2022/09/05 07:52:05;;;;;;;11.20;8.27;;;21.30;99.90;;;;;;5118210;27;20398;-80
2022/09/05 07:54:39;;;;;;;11.77;8.00;;;21.40;99.90;;;;;;5112914;27;20475;-80
2022/09/05 07:57:08;;;;;;;10.77;7.97;;;21.40;99.90;;;;;;5089766;28;20904;-80
2022/09/05 07:59:38;;;;;;;10.25;8.25;;;21.90;99.90;;;;;;5084792;28;20418;-80
2022/09/05 08:02:07;;;;;;;10.23;7.88;;;22.00;99.90;;;;;;5109662;27;20406;-80
2022/09/05 08:04:35;;;;;;;9.57;7.82;;;22.40;99.90;;;;;;5115637;27;20418;-80
2022/09/05 08:07:07;;;;;;;9.95;7.43;;;22.20;99.90;;;;;;5100660;27;20409;-81
2022/09/05 08:09:35;;;;;;;8.82;7.85;;;22.40;99.90;;;;;;5113927;27;20479;-81
2022/09/05 08:12:16;;;;;;;11.48;7.60;;;22.40;99.90;;;;;;5076645;28;20474;-81
2022/09/05 08:14:58;;;;;;;12.32;7.80;;;22.10;99.90;;;;;;5093442;28;20397;-81
2022/09/05 08:17:25;;;;;;;13.20;7.55;;;22.40;99.90;;;;;;5067984;28;20433;-81
2022/09/05 08:20:12;;;;;;;9.97;7.53;;;24.80;99.90;;;;;;5106737;27;20426;-80
2022/09/05 08:23:20;;;;;;;9.63;7.90;;;22.60;99.90;;;;;;5100340;27;20395;-80
2022/09/05 08:26:11;;;;;;;9.07;7.13;;;22.40;99.90;;;;;;5094928;27;20406;-81
2022/09/05 08:28:45;;;;;;;11.13;7.40;;;22.80;99.90;;;;;;5059431;28;20969;-81
2022/09/05 08:31:18;;;;;;;11.25;7.40;;;22.70;99.90;;;;;;5081907;27;20821;-81
2022/09/05 08:33:47;;;;;;;10.10;7.50;;;23.00;99.90;;;;;;5113805;27;20402;-82
2022/09/05 08:36:30;;;;;;;9.60;6.70;;;23.30;99.90;;;;;;5100398;28;20428;-82
2022/09/05 08:39:01;;;;;;;7.82;7.00;;;23.10;99.90;;;;;;5098833;27;20927;-81
2022/09/05 08:41:37;;;;;;;9.27;7.17;;;23.40;99.90;;;;;;5093029;28;20416;-82
2022/09/05 08:44:17;;;;;;;7.80;6.50;;;23.50;99.90;;;;;;5099339;27;20449;-80
2022/09/05 08:47:10;;;;;;;9.70;6.57;;;23.70;99.90;;;;;;5113505;27;20423;-79
2022/09/05 08:49:39;;;;;;;11.48;6.68;;;24.20;99.90;;;;;;5108609;28;20527;-81
2022/09/05 08:52:18;;;;;;;7.90;6.72;;;24.10;99.90;;;;;;5101059;27;20415;-77
2022/09/05 08:54:57;;;;;;;10.10;6.68;;;24.10;99.90;;;;;;5097492;27;21211;-77
2022/09/05 08:57:42;;;;;;;8.75;6.53;;;24.40;99.90;;;;;;5087684;27;20418;-78
2022/09/05 09:00:10;;;;;;;8.88;5.68;;;24.50;99.90;;;;;;5097428;28;20776;-81
2022/09/05 09:02:46;;;;;;;10.73;6.43;;;24.80;99.90;;;;;;5094989;28;20909;-80
2022/09/05 09:05:27;;;;;;;8.38;6.07;;;24.90;99.90;;;;;;5113926;27;20422;-80
2022/09/05 09:08:30;;;;;;;7.25;6.20;;;24.90;99.90;;;;;;5107575;27;20426;-79
2022/09/05 09:11:05;;;;;;;6.70;5.43;;;25.20;99.90;;;;;;5091631;28;20423;-79
2022/09/05 09:13:53;;;;;;;9.45;5.82;;;25.50;99.90;;;;;;5093895;28;20423;-79
2022/09/05 09:16:39;;;;;;;8.35;5.80;;;25.60;99.90;;;;;;5098890;28;20427;-78
2022/09/05 09:19:17;;;;;;;8.48;5.68;;;25.70;99.90;;;;;;5100060;27;20421;-78
2022/09/05 09:21:54;;;;;;;8.70;5.70;;;25.70;99.90;;;;;;5114090;27;20414;-78
2022/09/05 09:24:31;;;;;;;8.73;5.78;;;25.90;99.90;;;;;;5092648;28;20916;-78
2022/09/05 09:27:23;;;;;;;6.90;5.60;;;26.00;99.90;;;;;;5111907;27;20418;-79
2022/09/05 09:29:53;;;;;;;7.85;5.20;;;26.30;99.90;;;;;;5075075;28;20930;-78
2022/09/05 09:32:23;;;;;;;8.13;5.55;;;26.40;99.90;;;;;;5109482;27;20414;-78
2022/09/05 09:35:16;;;;;;;10.20;5.78;;;26.60;99.90;;;;;;5068907;27;20490;-78
2022/09/05 09:38:00;;;;;;;7.28;5.00;;;26.60;99.90;;;;;;5058330;28;20430;-79
2022/09/05 09:40:42;;;;;;;7.47;4.70;;;26.40;99.90;;;;;;5067845;28;20475;-78
2022/09/05 09:43:24;;;;;;;8.33;4.73;;;26.50;99.90;;;;;;5078091;28;20929;-79
2022/09/05 09:45:59;;;;;;;9.25;4.90;;;27.00;99.90;;;;;;5081737;28;20466;-79
2022/09/05 09:49:06;;;;;;;6.78;4.40;;;27.60;99.90;;;;;;5094919;28;20530;-79
2022/09/05 09:51:49;;;;;;;6.30;4.50;;;27.60;99.90;;;;;;5093042;27;20425;-79
2022/09/05 09:54:33;;;;;;;6.82;4.13;;;27.90;99.90;;;;;;5075849;28;20453;-79
2022/09/05 09:57:23;;;;;;;6.83;3.90;;;28.30;99.90;;;;;;5091473;28;20520;-78
2022/09/05 10:00:16;;;;;;;6.68;3.92;;;27.90;99.90;;;;;;5077158;28;20518;-78
2022/09/05 10:03:20;;;;;;;9.35;3.75;;;27.80;99.90;;;;;;5091986;28;20459;-76
2022/09/05 10:06:07;;;;;;;9.23;3.87;;;28.20;99.90;;;;;;5057998;28;20804;-78
2022/09/05 10:08:48;;;;;;;6.50;3.88;;;27.80;99.90;;;;;;5080952;28;20424;-79
2022/09/05 10:11:19;;;;;;;9.15;4.03;;;27.80;99.90;;;;;;5098928;28;20410;-78
2022/09/05 10:14:19;;;;;;;7.10;3.60;;;27.90;99.90;;;;;;5071649;28;20399;-77
2022/09/05 10:17:12;;;;;;;6.90;3.63;;;28.40;99.90;;;;;;5090961;28;20942;-77
2022/09/05 10:19:57;;;;;;;7.27;3.47;;;28.60;99.90;;;;;;5093352;28;20878;-77
2022/09/05 10:23:00;;;;;;;5.90;3.13;;;28.30;99.90;;;;;;5090814;28;20427;-77
2022/09/05 10:25:43;;;;;;;6.85;3.10;;;28.30;99.90;;;;;;5076793;28;20418;-77
2022/09/05 10:28:32;;;;;;;5.00;3.30;;;28.70;99.90;;;;;;5058292;28;20402;-77
2022/09/05 10:31:21;;;;;;;5.90;3.30;;;28.80;99.90;;;;;;5094146;28;20743;-77
2022/09/05 10:34:08;;;;;;;5.75;3.28;;;29.00;99.90;;;;;;5098383;27;20411;-77
2022/09/05 10:36:37;;;;;;;6.45;3.00;;;29.20;99.90;;;;;;5098837;28;20457;-78
2022/09/05 10:39:17;;;;;;;6.22;3.00;;;29.30;99.90;;;;;;5073944;28;20889;-78
2022/09/05 10:41:59;;;;;;;6.82;3.10;;;29.40;99.90;;;;;;5073785;28;20401;-79
2022/09/05 10:44:45;;;;;;;4.78;3.05;;;29.00;99.90;;;;;;5096062;28;20416;-78
2022/09/05 10:47:32;;;;;;;5.70;2.92;;;29.10;99.90;;;;;;5100320;28;20416;-79
2022/09/05 10:50:18;;;;;;;4.90;3.45;;;28.80;99.90;;;;;;5093778;28;20475;-78
2022/09/05 10:52:50;;;;;;;5.07;2.83;;;28.60;99.90;;;;;;5074844;28;20430;-78
2022/09/05 10:55:44;;;;;;;4.30;3.15;;;28.30;99.90;;;;;;5091855;28;20919;-78
2022/09/05 10:58:25;;;;;;;3.93;2.90;;;28.40;99.90;;;;;;5072204;28;20400;-78
2022/09/05 11:01:19;;;;;;;6.00;3.20;;;28.80;99.90;;;;;;5075630;28;20427;-78
2022/09/05 11:04:09;;;;;;;7.75;3.30;;;29.30;99.90;;;;;;5092044;28;20468;-78
2022/09/05 11:06:56;;;;;;;4.82;3.10;;;29.10;99.90;;;;;;5089572;28;20416;-77
2022/09/05 11:09:34;;;;;;;7.75;3.70;;;29.00;99.90;;;;;;5079076;28;20416;-79
2022/09/05 11:12:18;;;;;;;5.60;3.40;;;28.80;99.90;;;;;;5110091;28;20770;-77
2022/09/05 11:14:48;;;;;;;5.57;3.05;;;29.30;99.90;;;;;;5093770;28;20454;-79
2022/09/05 11:17:43;;;;;;;6.63;3.22;;;29.30;99.90;;;;;;5096421;28;20423;-79
2022/09/05 11:20:15;;;;;;;4.20;3.03;;;28.70;99.90;;;;;;5093653;28;20466;-77
2022/09/05 11:22:46;;;;;;;4.82;2.90;;;29.40;99.90;;;;;;5088611;28;20452;-78
2022/09/05 11:25:26;;;;;;;5.70;3.30;;;29.50;99.90;;;;;;5094342;28;20418;-78
2022/09/05 11:27:53;;;;;;;4.25;2.85;;;29.60;99.90;;;;;;5066685;28;20577;-79
2022/09/05 11:30:30;;;;;;;6.88;3.40;;;29.40;99.90;;;;;;5083358;28;20464;-79
2022/09/05 11:33:14;;;;;;;5.07;3.10;;;29.80;99.90;;;;;;5096903;28;20845;-79
2022/09/05 11:36:02;;;;;;;10.43;4.20;;;29.80;99.90;;;;;;5068588;28;20425;-78
2022/09/05 11:39:05;;;;;;;4.85;3.25;;;29.50;99.90;;;;;;5083562;28;20416;-82
2022/09/05 11:42:05;;;;;;;7.20;3.22;;;29.50;99.90;;;;;;5103981;28;20406;-81
2022/09/05 11:45:01;;;;;;;4.90;3.20;;;29.90;99.90;;;;;;5074105;28;20418;-81
2022/09/05 11:47:51;;;;;;;5.78;3.33;;;29.70;99.90;;;;;;5081446;28;20482;-79
2022/09/05 11:50:40;;;;;;;5.72;3.30;;;29.60;99.90;;;;;;5089026;27;20917;-79
2022/09/05 11:53:21;;;;;;;6.00;3.30;;;30.20;99.90;;;;;;5083653;28;20431;-78
2022/09/05 11:56:20;;;;;;;9.15;3.75;;;30.00;99.90;;;;;;5096894;28;20919;-78
2022/09/05 11:58:58;;;;;;;6.53;3.25;;;30.20;99.90;;;;;;5082976;28;20396;-78
2022/09/05 12:01:52;;;;;;;7.47;3.05;;;29.70;99.90;;;;;;5099518;28;20415;-80
2022/09/05 12:04:45;;;;;;;5.13;3.10;;;30.30;99.90;;;;;;5096938;28;20479;-79
2022/09/05 12:07:30;;;;;;;7.47;2.60;;;30.50;99.90;;;;;;5080139;27;20445;-79
2022/09/05 12:10:27;;;;;;;4.37;2.10;;;29.60;99.90;;;;;;5097414;27;20418;-78
2022/09/05 12:13:30;;;;;;;3.97;2.10;;;29.90;99.30;;;;;;5095393;28;21067;-78
2022/09/05 12:15:58;;;;;;;3.55;2.00;;;30.70;98.20;;;;;;5097643;28;20446;-78
2022/09/05 12:18:46;;;;;;;4.28;2.25;;;30.90;98.20;;;;;;5069667;28;20431;-80
2022/09/05 12:21:30;;;;;;;6.95;2.25;;;31.30;97.80;;;;;;5079131;27;20463;-78
2022/09/05 12:24:19;;;;;;;4.07;2.28;;;31.10;96.80;;;;;;5100198;27;20394;-79
2022/09/05 12:27:14;;;;;;;6.10;2.50;;;31.60;97.60;;;;;;5063294;28;20417;-80
2022/09/05 12:29:45;;;;;;;5.03;2.20;;;31.90;97.40;;;;;;5088281;28;20469;-79
2022/09/05 12:32:24;;;;;;;3.28;2.20;;;31.80;97.40;;;;;;5085614;27;21128;-80
2022/09/05 12:34:54;;;;;;;3.67;2.22;;;31.20;97.10;;;;;;5076911;28;20451;-78
2022/09/05 12:37:33;;;;;;;4.53;2.42;;;30.80;97.50;;;;;;5081262;28;20422;-78
2022/09/05 12:40:16;;;;;;;5.10;2.07;;;30.80;96.80;;;;;;5079043;28;20430;-78
2022/09/05 12:42:55;;;;;;;3.83;2.03;;;30.40;96.50;;;;;;5073243;27;20466;-79
2022/09/05 12:45:31;;;;;;;3.38;2.00;;;30.00;96.80;;;;;;5097777;28;20915;-78
2022/09/05 12:48:02;;;;;;;3.90;2.20;;;30.40;96.80;;;;;;5058183;28;20402;-79
2022/09/05 12:50:53;;;;;;;4.93;2.40;;;30.40;97.70;;;;;;5074566;28;20494;-80
2022/09/05 12:53:21;;;;;;;4.32;2.15;;;30.30;97.00;;;;;;5103260;27;20410;-79
2022/09/05 12:56:01;;;;;;;2.97;1.90;;;30.50;97.50;;;;;;5116070;27;20395;-79
2022/09/05 12:58:34;;;;;;;5.05;2.00;;;30.60;96.90;;;;;;5114468;27;20741;-80
2022/09/05 13:01:33;;;;;;;4.80;2.20;;;30.60;96.60;;;;;;5089470;28;20405;-79
2022/09/05 13:04:17;;;;;;;3.65;2.30;;;31.30;95.60;;;;;;5082157;28;20398;-79
2022/09/05 13:07:02;;;;;;;5.07;2.25;;;31.20;96.10;;;;;;5091180;28;20416;-79
2022/09/05 13:09:55;;;;;;;5.00;2.35;;;31.30;96.40;;;;;;5071705;28;20489;-80
2022/09/05 13:12:32;;;;;;;4.00;2.30;;;31.20;95.80;;;;;;5082781;27;20497;-79
2022/09/05 13:15:04;;;;;;;4.70;2.20;;;31.40;95.70;;;;;;5110789;27;20433;-79
2022/09/05 13:17:49;;;;;;;6.93;2.30;;;31.70;96.30;;;;;;5080342;28;20513;-79
2022/09/05 13:20:47;;;;;;;3.80;2.20;;;31.70;95.10;;;;;;5081158;28;20440;-79
2022/09/05 13:23:24;;;;;;;5.47;2.30;;;31.60;95.30;;;;;;5073512;27;20447;-79
2022/09/05 13:26:02;;;;;;;4.90;2.20;;;31.40;96.20;;;;;;5099880;27;20421;-79
2022/09/05 13:28:47;;;;;;;6.47;2.50;;;31.30;95.30;;;;;;5085810;28;20946;-79
2022/09/05 13:31:39;;;;;;;4.82;2.50;;;31.90;95.70;;;;;;5089940;27;20493;-80
2022/09/05 13:34:15;;;;;;;4.80;2.60;;;31.50;95.60;;;;;;5079584;28;20785;-80
2022/09/05 13:36:47;;;;;;;4.93;2.30;;;31.70;95.50;;;;;;5085718;27;20419;-79
2022/09/05 13:39:18;;;;;;;3.93;2.20;;;31.70;96.10;;;;;;5080688;28;20418;-81
2022/09/05 13:41:58;;;;;;;4.13;2.10;;;31.20;95.80;;;;;;5096483;28;20424;-79
2022/09/05 13:44:26;;;;;;;5.82;2.45;;;31.00;95.30;;;;;;5108171;27;20414;-79
2022/09/05 13:47:25;;;;;;;5.07;2.50;;;30.50;96.00;;;;;;5097612;27;20399;-78
2022/09/05 13:49:56;;;;;;;5.78;2.47;;;30.60;95.80;;;;;;5105729;28;21403;-79
2022/09/05 13:52:37;;;;;;;4.07;2.20;;;31.00;96.60;;;;;;5073774;28;20417;-80
2022/09/05 13:55:31;;;;;;;5.53;2.22;;;30.70;96.30;;;;;;5091914;27;20426;-79
2022/09/05 13:58:06;;;;;;;5.10;2.47;;;30.10;96.80;;;;;;5053369;27;20431;-79
2022/09/05 14:00:35;;;;;;;3.55;2.40;;;30.50;97.10;;;;;;5069829;28;20419;-80
2022/09/05 14:03:40;;;;;;;5.55;2.42;;;30.10;96.80;;;;;;5071122;28;20416;-80
2022/09/05 14:06:24;;;;;;;5.93;2.30;;;30.20;96.70;;;;;;5068422;28;20413;-79
2022/09/05 14:09:19;;;;;;;4.18;2.25;;;29.50;96.20;;;;;;5076064;28;20457;-80
2022/09/05 14:12:06;;;;;;;7.45;2.38;;;29.70;96.20;;;;;;5091376;28;20911;-81
2022/09/05 14:14:42;;;;;;;5.05;2.33;;;29.70;96.10;;;;;;5073856;28;20886;-80
2022/09/05 14:17:19;;;;;;;4.82;2.30;;;29.90;96.60;;;;;;5076432;28;20417;-80
2022/09/05 14:22:41;;;;;;;4.68;2.40;;;29.90;96.40;;;;;;5070966;28;20429;-80